createdAt,value
2018-10-21T00:00:34.900Z,1018.98
2018-10-21T00:01:35.073Z,1019.01
2018-10-21T00:02:35.206Z,1019.08
2018-10-21T00:03:35.338Z,1019.06
2018-10-21T00:04:35.533Z,1019.06
2018-10-21T00:05:35.673Z,1019.06
2018-10-21T00:06:35.842Z,1019.05
2018-10-21T00:07:35.934Z,1019.14
2018-10-21T00:08:36.080Z,1019.11
2018-10-21T00:09:36.160Z,1019.07
2018-10-21T00:10:36.280Z,1019.05
2018-10-21T00:11:36.360Z,1019.07
2018-10-21T00:12:36.645Z,1019.07
2018-10-21T00:13:37.064Z,1019.00
2018-10-21T00:14:36.984Z,1019.04
2018-10-21T00:15:37.474Z,1019.08
2018-10-21T00:16:38.032Z,1019.06
2018-10-21T00:17:37.807Z,1018.99
2018-10-21T00:18:38.400Z,1019.03
2018-10-21T00:19:38.517Z,1019.05
2018-10-21T00:20:38.335Z,1018.98
2018-10-21T00:21:38.950Z,1019.06
2018-10-21T00:22:39.028Z,1019.02
2018-10-21T00:23:39.119Z,1019.04
2018-10-21T00:24:39.134Z,1019.04
2018-10-21T00:25:39.217Z,1019.01
2018-10-21T00:26:39.083Z,1018.99
2018-10-21T00:27:39.374Z,1018.96
2018-10-21T00:29:39.667Z,1019.00
2018-10-21T00:30:39.945Z,1019.03
2018-10-21T00:31:40.236Z,1018.98
2018-10-21T00:32:40.528Z,1018.95
2018-10-21T00:33:40.765Z,1019.03
2018-10-21T00:34:41.053Z,1019.01
2018-10-21T00:35:41.465Z,1018.99
2018-10-21T00:36:41.736Z,1018.95
2018-10-21T00:37:42.027Z,1018.90
2018-10-21T00:38:42.510Z,1018.88
2018-10-21T00:39:43.093Z,1018.91
2018-10-21T00:40:42.874Z,1018.98
2018-10-21T00:41:43.155Z,1018.99
2018-10-21T00:42:43.553Z,1018.99
2018-10-21T00:43:43.983Z,1019.02
2018-10-21T00:44:44.322Z,1019.01
2018-10-21T00:45:44.611Z,1019.07
2018-10-21T00:46:44.940Z,1019.02
2018-10-21T00:47:45.266Z,1018.96
2018-10-21T00:48:45.746Z,1018.96
2018-10-21T00:49:46.017Z,1018.95
2018-10-21T00:50:46.292Z,1018.91
2018-10-21T00:51:46.592Z,1019.01
2018-10-21T00:52:46.889Z,1018.93
2018-10-21T00:53:47.167Z,1018.92
2018-10-21T00:54:47.486Z,1018.97
2018-10-21T00:55:47.805Z,1018.91
2018-10-21T00:56:48.305Z,1018.96
2018-10-21T00:57:48.309Z,1018.97
2018-10-21T00:58:48.375Z,1018.93
2018-10-21T00:59:48.412Z,1019.01
2018-10-21T01:00:48.503Z,1018.97
2018-10-21T01:01:48.652Z,1018.93
2018-10-21T01:02:48.842Z,1018.96
2018-10-21T01:03:48.960Z,1018.97
2018-10-21T01:04:49.080Z,1018.88
2018-10-21T01:05:49.264Z,1018.97
2018-10-21T01:06:49.436Z,1018.87
2018-10-21T01:07:49.595Z,1018.91
2018-10-21T01:08:49.793Z,1018.87
2018-10-21T01:09:49.918Z,1018.87
2018-10-21T01:10:50.091Z,1018.85
2018-10-21T01:11:50.238Z,1018.86
2018-10-21T01:12:50.389Z,1018.76
2018-10-21T01:13:50.546Z,1018.79
2018-10-21T01:14:50.726Z,1018.86
2018-10-21T01:15:50.928Z,1018.82
2018-10-21T01:16:51.111Z,1018.80
2018-10-21T01:17:51.189Z,1018.79
2018-10-21T01:18:51.356Z,1018.81
2018-10-21T01:19:51.508Z,1018.80
2018-10-21T01:20:51.629Z,1018.67
2018-10-21T01:21:51.732Z,1018.76
2018-10-21T01:22:51.912Z,1018.73
2018-10-21T01:23:52.249Z,1018.74
2018-10-21T01:24:52.353Z,1018.77
2018-10-21T01:25:52.435Z,1018.81
2018-10-21T01:26:52.519Z,1018.77
2018-10-21T01:27:52.602Z,1018.81
2018-10-21T01:28:52.699Z,1018.77
2018-10-21T01:29:52.777Z,1018.82
2018-10-21T01:30:52.863Z,1018.83
2018-10-21T01:31:52.946Z,1018.75
2018-10-21T01:32:53.015Z,1018.72
2018-10-21T01:33:53.106Z,1018.71
2018-10-21T01:34:53.203Z,1018.74
2018-10-21T01:35:53.302Z,1018.71
2018-10-21T01:36:53.523Z,1018.71
2018-10-21T01:37:53.567Z,1018.62
2018-10-21T01:38:53.574Z,1018.72
2018-10-21T01:39:53.651Z,1018.67
2018-10-21T01:41:54.042Z,1018.63
2018-10-21T01:42:54.332Z,1018.65
2018-10-21T01:43:54.313Z,1018.62
2018-10-21T01:44:54.633Z,1018.63
2018-10-21T01:45:54.892Z,1018.67
2018-10-21T01:46:54.896Z,1018.61
2018-10-21T01:47:55.296Z,1018.66
2018-10-21T01:48:55.161Z,1018.67
2018-10-21T01:49:55.688Z,1018.66
2018-10-21T01:50:55.489Z,1018.66
2018-10-21T01:51:55.877Z,1018.67
2018-10-21T01:52:56.156Z,1018.74
2018-10-21T01:53:56.468Z,1018.66
2018-10-21T01:54:56.761Z,1018.67
2018-10-21T01:55:57.104Z,1018.58
2018-10-21T01:56:57.431Z,1018.74
2018-10-21T01:57:57.680Z,1018.72
2018-10-21T01:58:57.762Z,1018.75
2018-10-21T01:59:58.067Z,1018.77
2018-10-21T02:00:58.355Z,1018.79
2018-10-21T02:01:58.781Z,1018.76
2018-10-21T02:02:59.182Z,1018.84
2018-10-21T02:03:59.204Z,1018.85
2018-10-21T02:04:59.504Z,1018.89
2018-10-21T02:05:59.792Z,1018.93
2018-10-21T02:07:00.092Z,1018.88
2018-10-21T02:08:00.353Z,1018.84
2018-10-21T02:09:00.766Z,1018.85
2018-10-21T02:10:01.069Z,1018.80
2018-10-21T02:11:01.564Z,1018.85
2018-10-21T02:12:01.919Z,1018.81
2018-10-21T02:13:02.548Z,1018.84
2018-10-21T02:14:02.312Z,1018.81
2018-10-21T02:15:02.864Z,1018.80
2018-10-21T02:16:03.339Z,1018.78
2018-10-21T02:17:03.977Z,1018.82
2018-10-21T02:18:04.140Z,1018.83
2018-10-21T02:19:04.292Z,1018.81
2018-10-21T02:20:04.447Z,1018.79
2018-10-21T02:21:04.806Z,1018.82
2018-10-21T02:22:04.909Z,1018.77
2018-10-21T02:24:05.168Z,1018.82
2018-10-21T02:25:05.351Z,1018.85
2018-10-21T02:26:05.737Z,1018.82
2018-10-21T02:27:05.872Z,1018.85
2018-10-21T02:28:05.959Z,1018.83
2018-10-21T02:29:06.053Z,1018.85
2018-10-21T02:30:06.202Z,1018.83
2018-10-21T02:31:06.427Z,1018.84
2018-10-21T02:32:06.572Z,1018.89
2018-10-21T02:33:06.792Z,1018.84
2018-10-21T02:34:06.995Z,1018.88
2018-10-21T02:35:07.104Z,1018.80
2018-10-21T02:36:07.449Z,1018.92
2018-10-21T02:37:07.512Z,1018.85
2018-10-21T02:38:07.591Z,1018.83
2018-10-21T02:39:07.748Z,1018.91
2018-10-21T02:40:07.763Z,1018.92
2018-10-21T02:41:07.845Z,1018.90
2018-10-21T02:42:08.000Z,1018.94
2018-10-21T02:43:07.797Z,1018.83
2018-10-21T02:44:08.373Z,1018.86
2018-10-21T02:45:08.905Z,1018.88
2018-10-21T02:46:08.660Z,1018.87
2018-10-21T02:47:09.348Z,1018.82
2018-10-21T02:48:09.420Z,1018.86
2018-10-21T02:49:09.447Z,1018.80
2018-10-21T02:50:09.821Z,1018.87
2018-10-21T02:51:09.844Z,1018.81
2018-10-21T02:52:09.780Z,1018.88
2018-10-21T02:53:10.056Z,1018.78
2018-10-21T02:54:10.353Z,1018.89
2018-10-21T02:55:10.706Z,1018.82
2018-10-21T02:56:11.221Z,1018.85
2018-10-21T02:57:11.221Z,1018.89
2018-10-21T02:58:11.433Z,1018.77
2018-10-21T02:59:11.802Z,1018.83
2018-10-21T03:00:12.100Z,1018.91
2018-10-21T03:01:12.436Z,1018.83
2018-10-21T03:02:12.749Z,1018.85
2018-10-21T03:03:13.091Z,1018.88
2018-10-21T03:04:13.628Z,1018.79
2018-10-21T03:05:13.550Z,1018.86
2018-10-21T03:06:13.848Z,1018.90
2018-10-21T03:07:14.149Z,1018.93
2018-10-21T03:08:14.430Z,1018.91
2018-10-21T03:09:14.875Z,1018.92
2018-10-21T03:10:15.404Z,1018.90
2018-10-21T03:11:15.188Z,1018.88
2018-10-21T03:12:15.482Z,1018.88
2018-10-21T03:13:15.779Z,1018.86
2018-10-21T03:14:16.379Z,1018.80
2018-10-21T03:15:16.363Z,1018.86
2018-10-21T03:16:16.590Z,1018.77
2018-10-21T03:17:16.901Z,1018.88
2018-10-21T03:18:17.392Z,1018.88
2018-10-21T03:19:17.764Z,1018.92
2018-10-21T03:20:18.141Z,1018.97
2018-10-21T03:21:18.866Z,1018.94
2018-10-21T03:22:18.848Z,1018.95
2018-10-21T03:23:18.990Z,1018.90
2018-10-21T03:24:19.131Z,1018.99
2018-10-21T03:25:19.255Z,1018.92
2018-10-21T03:26:19.418Z,1019.04
2018-10-21T03:27:19.676Z,1018.97
2018-10-21T03:28:19.719Z,1018.93
2018-10-21T03:29:19.885Z,1018.93
2018-10-21T03:30:20.052Z,1018.86
2018-10-21T03:31:20.226Z,1018.95
2018-10-21T03:32:20.408Z,1018.91
2018-10-21T03:33:20.794Z,1018.93
2018-10-21T03:34:20.774Z,1018.98
2018-10-21T03:35:20.939Z,1018.93
2018-10-21T03:36:21.168Z,1018.95
2018-10-21T03:37:21.300Z,1018.91
2018-10-21T03:38:21.422Z,1018.91
2018-10-21T03:39:21.487Z,1018.88
2018-10-21T03:40:21.626Z,1018.93
2018-10-21T03:41:21.707Z,1018.89
2018-10-21T03:42:21.922Z,1018.84
2018-10-21T03:43:21.994Z,1018.92
2018-10-21T03:44:22.199Z,1018.90
2018-10-21T03:45:22.293Z,1018.89
2018-10-21T03:46:22.415Z,1018.90
2018-10-21T03:47:22.562Z,1018.88
2018-10-21T03:48:22.668Z,1018.89
2018-10-21T03:49:22.786Z,1018.89
2018-10-21T03:50:22.905Z,1018.92
2018-10-21T03:51:23.142Z,1018.83
2018-10-21T03:52:23.249Z,1018.91
2018-10-21T03:53:23.019Z,1018.89
2018-10-21T03:54:23.708Z,1018.85
2018-10-21T03:55:23.813Z,1018.93
2018-10-21T03:56:23.839Z,1018.83
2018-10-21T03:57:23.950Z,1018.87
2018-10-21T03:58:24.153Z,1018.85
2018-10-21T03:59:24.060Z,1018.95
2018-10-21T04:00:24.392Z,1018.87
2018-10-21T04:01:24.705Z,1018.90
2018-10-21T04:02:25.103Z,1018.89
2018-10-21T04:03:25.394Z,1018.91
2018-10-21T04:04:25.994Z,1018.91
2018-10-21T04:05:25.934Z,1018.89
2018-10-21T04:06:26.214Z,1018.88
2018-10-21T04:07:26.501Z,1018.89
2018-10-21T04:08:26.961Z,1018.92
2018-10-21T04:09:27.287Z,1018.94
2018-10-21T04:10:27.725Z,1018.81
2018-10-21T04:11:28.132Z,1018.86
2018-10-21T04:12:28.469Z,1018.90
2018-10-21T04:13:28.777Z,1018.88
2018-10-21T04:14:29.328Z,1018.83
2018-10-21T04:15:29.133Z,1018.87
2018-10-21T04:16:29.456Z,1018.92
2018-10-21T04:17:29.905Z,1018.85
2018-10-21T04:18:30.209Z,1018.89
2018-10-21T04:19:30.503Z,1018.87
2018-10-21T04:20:30.777Z,1018.89
2018-10-21T04:21:31.079Z,1018.86
2018-10-21T04:22:31.392Z,1018.82
2018-10-21T04:23:31.877Z,1018.88
2018-10-21T04:24:32.165Z,1018.90
2018-10-21T04:25:32.831Z,1018.86
2018-10-21T04:26:32.750Z,1018.92
2018-10-21T04:27:33.310Z,1018.86
2018-10-21T04:28:33.373Z,1018.80
2018-10-21T04:29:33.530Z,1018.82
2018-10-21T04:30:33.670Z,1018.82
2018-10-21T04:31:34.005Z,1018.77
2018-10-21T04:32:34.199Z,1018.82
2018-10-21T04:33:34.648Z,1018.76
2018-10-21T04:34:35.047Z,1018.81
2018-10-21T04:35:35.342Z,1018.82
2018-10-21T04:36:35.482Z,1018.79
2018-10-21T04:37:35.673Z,1018.76
2018-10-21T04:38:36.116Z,1018.81
2018-10-21T04:39:36.463Z,1018.72
2018-10-21T04:40:36.623Z,1018.81
2018-10-21T04:41:36.732Z,1018.75
2018-10-21T04:42:36.837Z,1018.76
2018-10-21T04:43:36.620Z,1018.74
2018-10-21T04:44:37.231Z,1018.76
2018-10-21T04:45:37.356Z,1018.69
2018-10-21T04:47:37.459Z,1018.72
2018-10-21T04:48:37.544Z,1018.69
2018-10-21T04:49:37.619Z,1018.66
2018-10-21T04:50:37.749Z,1018.56
2018-10-21T04:51:37.831Z,1018.57
2018-10-21T04:53:37.946Z,1018.57
2018-10-21T04:54:37.950Z,1018.58
2018-10-21T04:55:38.627Z,1018.41
2018-10-21T04:56:38.709Z,1018.53
2018-10-21T04:57:38.799Z,1018.47
2018-10-21T04:58:38.870Z,1018.46
2018-10-21T04:59:38.968Z,1018.47
2018-10-21T05:00:39.108Z,1018.50
2018-10-21T05:01:39.152Z,1018.38
2018-10-21T05:02:39.045Z,1018.45
2018-10-21T05:03:39.667Z,1018.51
2018-10-21T05:04:39.711Z,1018.45
2018-10-21T05:05:39.570Z,1018.46
2018-10-21T05:06:39.865Z,1018.44
2018-10-21T05:07:40.241Z,1018.44
2018-10-21T05:08:40.484Z,1018.39
2018-10-21T05:09:41.031Z,1018.32
2018-10-21T05:10:40.975Z,1018.31
2018-10-21T05:11:41.267Z,1018.40
2018-10-21T05:12:41.535Z,1018.36
2018-10-21T05:13:41.949Z,1018.36
2018-10-21T05:14:42.273Z,1018.45
2018-10-21T05:15:42.923Z,1018.37
2018-10-21T05:16:42.871Z,1018.38
2018-10-21T05:17:43.100Z,1018.39
2018-10-21T05:18:43.393Z,1018.41
2018-10-21T05:19:43.687Z,1018.34
2018-10-21T05:20:44.005Z,1018.34
2018-10-21T05:21:44.293Z,1018.41
2018-10-21T05:22:44.597Z,1018.33
2018-10-21T05:23:44.931Z,1018.39
2018-10-21T05:24:45.184Z,1018.40
2018-10-21T05:25:45.779Z,1018.37
2018-10-21T05:26:45.599Z,1018.35
2018-10-21T05:27:45.892Z,1018.30
2018-10-21T05:28:46.375Z,1018.41
2018-10-21T05:29:46.691Z,1018.41
2018-10-21T05:30:47.006Z,1018.42
2018-10-21T05:31:47.584Z,1018.41
2018-10-21T05:32:47.354Z,1018.37
2018-10-21T05:33:47.729Z,1018.35
2018-10-21T05:34:48.251Z,1018.28
2018-10-21T05:35:48.373Z,1018.34
2018-10-21T05:36:48.385Z,1018.41
2018-10-21T05:37:48.503Z,1018.42
2018-10-21T05:38:48.626Z,1018.42
2018-10-21T05:39:48.767Z,1018.36
2018-10-21T05:40:48.964Z,1018.44
2018-10-21T05:41:49.143Z,1018.38
2018-10-21T05:42:49.348Z,1018.41
2018-10-21T05:43:49.771Z,1018.39
2018-10-21T05:44:49.958Z,1018.43
2018-10-21T05:45:50.106Z,1018.47
2018-10-21T05:46:50.405Z,1018.43
2018-10-21T05:47:50.670Z,1018.39
2018-10-21T05:48:50.849Z,1018.45
2018-10-21T05:49:50.959Z,1018.40
2018-10-21T05:50:51.056Z,1018.46
2018-10-21T05:51:51.164Z,1018.54
2018-10-21T05:52:51.270Z,1018.48
2018-10-21T05:53:51.400Z,1018.53
2018-10-21T05:54:51.506Z,1018.51
2018-10-21T05:55:51.675Z,1018.67
2018-10-21T05:56:51.782Z,1018.55
2018-10-21T05:57:51.955Z,1018.62
2018-10-21T05:58:52.037Z,1018.67
2018-10-21T05:59:52.208Z,1018.70
2018-10-21T06:00:52.332Z,1018.64
2018-10-21T06:01:52.463Z,1018.69
2018-10-21T06:02:52.616Z,1018.76
2018-10-21T06:03:52.642Z,1018.72
2018-10-21T06:04:52.729Z,1018.76
2018-10-21T06:05:53.235Z,1018.74
2018-10-21T06:06:53.324Z,1018.70
2018-10-21T06:07:53.431Z,1018.67
2018-10-21T06:08:53.579Z,1018.71
2018-10-21T06:09:53.796Z,1018.62
2018-10-21T06:10:53.840Z,1018.66
2018-10-21T06:11:53.967Z,1018.69
2018-10-21T06:12:54.013Z,1018.69
2018-10-21T06:13:53.946Z,1018.75
2018-10-21T06:14:54.388Z,1018.70
2018-10-21T06:15:54.815Z,1018.73
2018-10-21T06:16:55.125Z,1018.72
2018-10-21T06:17:55.075Z,1018.71
2018-10-21T06:18:55.365Z,1018.75
2018-10-21T06:19:55.443Z,1018.81
2018-10-21T06:20:55.925Z,1018.85
2018-10-21T06:21:55.793Z,1018.86
2018-10-21T06:22:56.133Z,1018.77
2018-10-21T06:23:56.553Z,1018.91
2018-10-21T06:24:56.837Z,1018.91
2018-10-21T06:25:57.470Z,1018.92
2018-10-21T06:26:57.405Z,1018.98
2018-10-21T06:27:57.800Z,1018.97
2018-10-21T06:29:58.127Z,1018.95
2018-10-21T06:30:58.466Z,1019.05
2018-10-21T06:31:58.778Z,1019.12
2018-10-21T06:32:59.227Z,1019.11
2018-10-21T06:33:59.470Z,1019.12
2018-10-21T06:34:59.814Z,1019.14
2018-10-21T06:36:00.445Z,1019.14
2018-10-21T06:37:00.274Z,1019.13
2018-10-21T06:38:00.540Z,1019.12
2018-10-21T06:39:01.014Z,1019.13
2018-10-21T06:40:00.956Z,1019.13
2018-10-21T06:41:01.110Z,1019.11
2018-10-21T06:42:01.194Z,1019.13
2018-10-21T06:43:01.799Z,1019.15
2018-10-21T06:44:01.847Z,1019.14
2018-10-21T06:45:02.190Z,1019.16
2018-10-21T06:46:02.306Z,1019.19
2018-10-21T06:47:02.162Z,1019.19
2018-10-21T06:48:02.791Z,1019.22
2018-10-21T06:49:02.603Z,1019.23
2018-10-21T06:50:03.355Z,1019.23
2018-10-21T06:51:03.445Z,1019.26
2018-10-21T06:52:03.577Z,1019.28
2018-10-21T06:53:03.759Z,1019.30
2018-10-21T06:54:03.919Z,1019.31
2018-10-21T06:55:06.847Z,1019.32
2018-10-21T06:56:04.503Z,1019.32
2018-10-21T06:57:04.752Z,1019.34
2018-10-21T06:58:04.842Z,1019.35
2018-10-21T06:59:05.047Z,1019.35
2018-10-21T07:00:05.228Z,1019.34
2018-10-21T07:01:05.148Z,1019.36
2018-10-21T07:02:05.980Z,1019.36
2018-10-21T07:03:06.152Z,1019.40
2018-10-21T07:04:06.387Z,1019.43
2018-10-21T07:05:06.562Z,1019.45
2018-10-21T07:06:06.913Z,1019.47
2018-10-21T07:07:06.914Z,1019.46
2018-10-21T07:08:07.073Z,1019.48
2018-10-21T07:09:07.290Z,1019.48
2018-10-21T07:10:07.545Z,1019.47
2018-10-21T07:11:07.561Z,1019.47
2018-10-21T07:12:07.539Z,1019.50
2018-10-21T07:13:08.025Z,1019.47
2018-10-21T07:14:08.482Z,1019.48
2018-10-21T07:15:08.830Z,1019.50
2018-10-21T07:16:09.778Z,1019.50
2018-10-21T07:17:09.720Z,1019.51
2018-10-21T07:18:09.782Z,1019.51
2018-10-21T07:19:09.574Z,1019.49
2018-10-21T07:20:09.865Z,1019.48
2018-10-21T07:21:10.235Z,1019.49
2018-10-21T07:22:10.678Z,1019.48
2018-10-21T07:23:10.896Z,1019.47
2018-10-21T07:24:11.419Z,1019.47
2018-10-21T07:25:11.209Z,1019.47
2018-10-21T07:26:11.774Z,1019.45
2018-10-21T07:27:11.547Z,1019.43
2018-10-21T07:28:11.988Z,1019.43
2018-10-21T07:29:12.331Z,1019.40
2018-10-21T07:30:12.878Z,1019.41
2018-10-21T07:31:12.702Z,1019.38
2018-10-21T07:32:13.012Z,1019.40
2018-10-21T07:33:13.298Z,1019.40
2018-10-21T07:34:13.791Z,1019.40
2018-10-21T07:35:14.348Z,1019.44
2018-10-21T07:36:14.413Z,1019.48
2018-10-21T07:37:14.271Z,1019.47
2018-10-21T07:38:14.551Z,1019.48
2018-10-21T07:39:14.854Z,1019.47
2018-10-21T07:40:15.527Z,1019.47
2018-10-21T07:41:15.276Z,1019.46
2018-10-21T07:42:15.593Z,1019.46
2018-10-21T07:43:15.897Z,1019.44
2018-10-21T07:44:16.279Z,1019.44
2018-10-21T07:45:16.877Z,1019.41
2018-10-21T07:46:17.133Z,1019.40
2018-10-21T07:47:17.360Z,1019.39
2018-10-21T07:48:17.671Z,1019.31
2018-10-21T07:49:18.285Z,1019.34
2018-10-21T07:50:18.791Z,1019.35
2018-10-21T07:51:18.952Z,1019.35
2018-10-21T07:52:19.141Z,1019.35
2018-10-21T07:53:19.535Z,1019.38
2018-10-21T07:54:19.707Z,1019.47
2018-10-21T07:55:19.946Z,1019.45
2018-10-21T07:56:20.042Z,1019.44
2018-10-21T07:57:20.177Z,1019.42
2018-10-21T07:58:20.399Z,1019.48
2018-10-21T07:59:20.565Z,1019.46
2018-10-21T08:00:20.743Z,1019.45
2018-10-21T08:01:21.029Z,1019.54
2018-10-21T08:02:21.055Z,1019.48
2018-10-21T08:03:21.182Z,1019.42
2018-10-21T08:04:21.291Z,1019.42
2018-10-21T08:05:21.395Z,1019.42
2018-10-21T08:06:21.807Z,1019.43
2018-10-21T08:07:22.203Z,1019.44
2018-10-21T08:08:22.569Z,1019.48
2018-10-21T08:09:22.715Z,1019.44
2018-10-21T08:10:23.814Z,1019.45
2018-10-21T08:11:23.812Z,1019.45
2018-10-21T08:12:24.223Z,1019.43
2018-10-21T08:13:23.687Z,1019.41
2018-10-21T08:14:24.092Z,1019.44
2018-10-21T08:15:24.326Z,1019.45
2018-10-21T08:16:24.352Z,1019.39
2018-10-21T08:17:24.394Z,1019.39
2018-10-21T08:18:24.705Z,1019.38
2018-10-21T08:19:24.986Z,1019.33
2018-10-21T08:20:25.613Z,1019.43
2018-10-21T08:21:25.443Z,1019.40
2018-10-21T08:22:25.883Z,1019.41
2018-10-21T08:23:26.193Z,1019.38
2018-10-21T08:24:26.753Z,1019.41
2018-10-21T08:25:26.528Z,1019.47
2018-10-21T08:26:27.050Z,1019.45
2018-10-21T08:27:27.014Z,1019.43
2018-10-21T08:28:27.128Z,1019.49
2018-10-21T08:29:27.481Z,1019.42
2018-10-21T08:30:27.770Z,1019.46
2018-10-21T08:31:28.090Z,1019.50
2018-10-21T08:32:28.381Z,1019.47
2018-10-21T08:33:28.673Z,1019.41
2018-10-21T08:34:28.998Z,1019.41
2018-10-21T08:35:29.409Z,1019.41
2018-10-21T08:36:29.740Z,1019.46
2018-10-21T08:37:30.375Z,1019.46
2018-10-21T08:38:30.185Z,1019.46
2018-10-21T08:39:30.476Z,1019.40
2018-10-21T08:40:30.768Z,1019.47
2018-10-21T08:41:31.189Z,1019.42
2018-10-21T08:42:31.534Z,1019.43
2018-10-21T08:43:31.904Z,1019.41
2018-10-21T08:44:32.267Z,1019.43
2018-10-21T08:45:32.630Z,1019.43
2018-10-21T08:46:33.068Z,1019.37
2018-10-21T08:47:33.627Z,1019.36
2018-10-21T08:48:33.845Z,1019.39
2018-10-21T08:49:34.045Z,1019.40
2018-10-21T08:50:34.184Z,1019.39
2018-10-21T08:51:34.381Z,1019.39
2018-10-21T08:52:34.553Z,1019.30
2018-10-21T08:53:34.797Z,1019.29
2018-10-21T08:54:34.931Z,1019.24
2018-10-21T08:55:35.095Z,1019.26
2018-10-21T08:56:35.306Z,1019.30
2018-10-21T08:57:35.473Z,1019.30
2018-10-21T08:58:35.707Z,1019.28
2018-10-21T08:59:35.924Z,1019.18
2018-10-21T09:00:36.076Z,1019.30
2018-10-21T09:01:36.266Z,1019.20
2018-10-21T09:02:36.413Z,1019.21
2018-10-21T09:03:36.537Z,1019.19
2018-10-21T09:04:36.681Z,1019.16
2018-10-21T09:05:36.823Z,1019.24
2018-10-21T09:06:36.966Z,1019.17
2018-10-21T09:07:37.129Z,1019.22
2018-10-21T09:08:37.306Z,1019.22
2018-10-21T09:09:37.368Z,1019.11
2018-10-21T09:10:37.618Z,1019.18
2018-10-21T09:11:37.610Z,1019.12
2018-10-21T09:12:37.945Z,1019.10
2018-10-21T09:13:38.114Z,1019.16
2018-10-21T09:14:38.202Z,1019.13
2018-10-21T09:15:38.288Z,1019.13
2018-10-21T09:16:38.168Z,1019.13
2018-10-21T09:17:38.741Z,1019.10
2018-10-21T09:18:39.033Z,1019.14
2018-10-21T09:19:39.287Z,1019.09
2018-10-21T09:20:39.238Z,1019.02
2018-10-21T09:21:39.574Z,1019.09
2018-10-21T09:22:40.019Z,1019.06
2018-10-21T09:23:40.525Z,1019.08
2018-10-21T09:24:41.082Z,1018.98
2018-10-21T09:25:40.870Z,1019.00
2018-10-21T09:26:41.225Z,1019.13
2018-10-21T09:27:41.832Z,1019.15
2018-10-21T09:28:41.855Z,1019.12
2018-10-21T09:29:42.421Z,1019.13
2018-10-21T09:30:42.235Z,1019.13
2018-10-21T09:31:42.517Z,1019.10
2018-10-21T09:32:43.044Z,1019.13
2018-10-21T09:33:42.904Z,1019.14
2018-10-21T09:34:43.245Z,1019.13
2018-10-21T09:35:43.675Z,1019.10
2018-10-21T09:36:43.977Z,1019.19
2018-10-21T09:37:44.393Z,1019.16
2018-10-21T09:38:44.359Z,1019.25
2018-10-21T09:39:44.656Z,1019.13
2018-10-21T09:40:44.961Z,1019.09
2018-10-21T09:41:45.241Z,1019.14
2018-10-21T09:42:45.583Z,1019.11
2018-10-21T09:43:45.970Z,1019.11
2018-10-21T09:44:46.253Z,1019.12
2018-10-21T09:45:46.548Z,1019.10
2018-10-21T09:46:46.846Z,1019.07
2018-10-21T09:47:47.153Z,1019.08
2018-10-21T09:48:47.512Z,1019.04
2018-10-21T09:49:47.781Z,1018.92
2018-10-21T09:50:48.263Z,1019.08
2018-10-21T09:51:48.920Z,1019.03
2018-10-21T09:52:49.108Z,1019.01
2018-10-21T09:53:49.266Z,1018.97
2018-10-21T09:54:49.431Z,1019.05
2018-10-21T09:55:49.573Z,1019.10
2018-10-21T09:56:49.734Z,1019.08
2018-10-21T09:57:49.847Z,1019.05
2018-10-21T09:58:50.056Z,1019.07
2018-10-21T09:59:50.208Z,1018.98
2018-10-21T10:00:50.400Z,1019.00
2018-10-21T10:01:50.672Z,1019.04
2018-10-21T10:02:51.014Z,1018.98
2018-10-21T10:04:51.483Z,1019.03
2018-10-21T10:05:51.703Z,1018.97
2018-10-21T10:06:51.852Z,1018.99
2018-10-21T10:07:52.046Z,1019.00
2018-10-21T10:08:52.463Z,1018.98
2018-10-21T10:09:52.546Z,1018.96
2018-10-21T10:10:52.729Z,1018.83
2018-10-21T10:11:52.804Z,1018.94
2018-10-21T10:12:52.893Z,1018.92
2018-10-21T10:13:52.993Z,1018.89
2018-10-21T10:14:53.091Z,1018.93
2018-10-21T10:15:53.213Z,1018.93
2018-10-21T10:16:53.297Z,1018.89
2018-10-21T10:17:53.387Z,1018.89
2018-10-21T10:18:53.481Z,1018.90
2018-10-21T10:19:53.785Z,1018.88
2018-10-21T10:20:53.990Z,1018.85
2018-10-21T10:21:54.001Z,1018.74
2018-10-21T10:22:54.037Z,1018.82
2018-10-21T10:23:54.310Z,1018.75
2018-10-21T10:24:54.230Z,1018.81
2018-10-21T10:25:54.188Z,1018.78
2018-10-21T10:26:54.465Z,1018.77
2018-10-21T10:27:55.396Z,1018.79
2018-10-21T10:28:55.215Z,1018.75
2018-10-21T10:29:55.701Z,1018.72
2018-10-21T10:30:56.008Z,1018.75
2018-10-21T10:31:56.355Z,1018.70
2018-10-21T10:32:56.676Z,1018.69
2018-10-21T10:33:57.022Z,1018.63
2018-10-21T10:34:57.412Z,1018.73
2018-10-21T10:35:57.784Z,1018.72
2018-10-21T10:36:58.227Z,1018.68
2018-10-21T10:37:58.329Z,1018.67
2018-10-21T10:38:58.121Z,1018.56
2018-10-21T10:39:58.485Z,1018.58
2018-10-21T10:40:58.995Z,1018.58
2018-10-21T10:41:58.861Z,1018.60
2018-10-21T10:42:59.100Z,1018.58
2018-10-21T10:43:59.492Z,1018.59
2018-10-21T10:44:59.760Z,1018.60
2018-10-21T10:46:00.204Z,1018.54
2018-10-21T10:47:00.564Z,1018.50
2018-10-21T10:48:00.871Z,1018.48
2018-10-21T10:49:01.244Z,1018.53
2018-10-21T10:50:01.933Z,1018.41
2018-10-21T10:51:02.252Z,1018.39
2018-10-21T10:52:02.595Z,1018.43
2018-10-21T10:53:02.958Z,1018.38
2018-10-21T10:54:03.719Z,1018.30
2018-10-21T10:55:03.964Z,1018.29
2018-10-21T10:56:04.090Z,1018.30
2018-10-21T10:57:04.271Z,1018.21
2018-10-21T10:58:04.629Z,1018.28
2018-10-21T10:59:04.750Z,1018.30
2018-10-21T11:00:05.033Z,1018.20
2018-10-21T11:01:05.303Z,1018.25
2018-10-21T11:02:05.452Z,1018.18
2018-10-21T11:03:05.626Z,1018.16
2018-10-21T11:04:05.764Z,1018.17
2018-10-21T11:05:06.194Z,1018.20
2018-10-21T11:06:06.054Z,1018.15
2018-10-21T11:07:06.307Z,1018.19
2018-10-21T11:08:06.452Z,1018.20
2018-10-21T11:09:06.844Z,1018.09
2018-10-21T11:10:07.212Z,1018.03
2018-10-21T11:11:07.209Z,1018.00
2018-10-21T11:12:07.325Z,1018.02
2018-10-21T11:13:07.466Z,1018.07
2018-10-21T11:14:07.486Z,1017.86
2018-10-21T11:15:07.634Z,1017.99
2018-10-21T11:16:07.948Z,1018.02
2018-10-21T11:17:07.939Z,1018.02
2018-10-21T11:18:08.546Z,1018.03
2018-10-21T11:19:08.759Z,1017.93
2018-10-21T11:20:08.465Z,1017.93
2018-10-21T11:21:09.055Z,1017.98
2018-10-21T11:22:09.167Z,1017.98
2018-10-21T11:23:08.947Z,1017.90
2018-10-21T11:24:09.467Z,1017.90
2018-10-21T11:25:09.756Z,1017.91
2018-10-21T11:26:09.802Z,1017.89
2018-10-21T11:27:09.629Z,1017.90
2018-10-21T11:28:10.006Z,1017.79
2018-10-21T11:29:10.570Z,1017.91
2018-10-21T11:30:10.444Z,1017.81
2018-10-21T11:31:10.870Z,1017.79
2018-10-21T11:32:11.067Z,1017.74
2018-10-21T11:33:11.503Z,1017.73
2018-10-21T11:34:11.865Z,1017.76
2018-10-21T11:35:12.122Z,1017.69
2018-10-21T11:36:12.426Z,1017.71
2018-10-21T11:37:12.955Z,1017.72
2018-10-21T11:38:13.132Z,1017.70
2018-10-21T11:39:13.425Z,1017.62
2018-10-21T11:40:13.876Z,1017.69
2018-10-21T11:41:14.131Z,1017.66
2018-10-21T11:42:14.452Z,1017.73
2018-10-21T11:43:14.842Z,1017.68
2018-10-21T11:44:15.022Z,1017.65
2018-10-21T11:45:15.627Z,1017.75
2018-10-21T11:46:15.507Z,1017.68
2018-10-21T11:47:15.735Z,1017.68
2018-10-21T11:48:16.029Z,1017.62
2018-10-21T11:49:16.391Z,1017.62
2018-10-21T11:50:16.933Z,1017.67
2018-10-21T11:51:17.077Z,1017.67
2018-10-21T11:52:17.017Z,1017.62
2018-10-21T11:53:17.144Z,1017.65
2018-10-21T11:54:17.441Z,1017.75
2018-10-21T11:55:18.075Z,1017.68
2018-10-21T11:56:17.752Z,1017.64
2018-10-21T11:57:18.316Z,1017.61
2018-10-21T11:58:18.680Z,1017.66
2018-10-21T11:59:18.752Z,1017.60
2018-10-21T12:00:18.871Z,1017.53
2018-10-21T12:01:19.101Z,1017.64
2018-10-21T12:02:19.227Z,1017.59
2018-10-21T12:03:19.470Z,1017.57
2018-10-21T12:04:19.641Z,1017.45
2018-10-21T12:05:19.885Z,1017.45
2018-10-21T12:06:20.101Z,1017.46
2018-10-21T12:07:20.338Z,1017.50
2018-10-21T12:08:20.480Z,1017.43
2018-10-21T12:09:20.632Z,1017.49
2018-10-21T12:10:20.809Z,1017.53
2018-10-21T12:11:21.088Z,1017.51
2018-10-21T12:12:21.371Z,1017.48
2018-10-21T12:13:21.559Z,1017.46
2018-10-21T12:14:21.741Z,1017.43
2018-10-21T12:15:21.918Z,1017.48